sensor_id;sensor_type;location;lat;lon;timestamp;pressure;altitude;pressure_sealevel;temperature;humidity
28628;BME280;15815;46.760;19.604;2022-09-09T00:01:26;100054.47;;;22.22;86.28
28628;BME280;15815;46.760;19.604;2022-09-09T00:06:45;100051.91;;;22.24;87.15
28628;BME280;15815;46.760;19.604;2022-09-09T00:14:11;100034.41;;;22.22;86.83
28628;BME280;15815;46.760;19.604;2022-09-09T00:16:40;100015.66;;;22.21;86.35
28628;BME280;15815;46.760;19.604;2022-09-09T00:19:17;100014.25;;;22.16;86.70
28628;BME280;15815;46.760;19.604;2022-09-09T00:22:14;100012.88;;;22.12;87.26
28628;BME280;15815;46.760;19.604;2022-09-09T00:24:44;100016.72;;;22.09;87.52
28628;BME280;15815;46.760;19.604;2022-09-09T00:27:43;100024.53;;;22.08;87.51
28628;BME280;15815;46.760;19.604;2022-09-09T00:30:22;100026.28;;;22.06;87.72
28628;BME280;15815;46.760;19.604;2022-09-09T00:32:59;100039.03;;;22.05;88.32
28628;BME280;15815;46.760;19.604;2022-09-09T00:35:30;100044.25;;;22.06;89.42
28628;BME280;15815;46.760;19.604;2022-09-09T00:38:00;100052.06;;;22.06;89.08
28628;BME280;15815;46.760;19.604;2022-09-09T00:40:31;100045.22;;;22.03;89.27
28628;BME280;15815;46.760;19.604;2022-09-09T00:43:31;100044.41;;;22.03;88.83
28628;BME280;15815;46.760;19.604;2022-09-09T00:57:27;100061.19;;;21.95;89.51
28628;BME280;15815;46.760;19.604;2022-09-09T01:00:22;100066.59;;;21.93;89.45
28628;BME280;15815;46.760;19.604;2022-09-09T01:03:14;100085.22;;;21.88;89.53
28628;BME280;15815;46.760;19.604;2022-09-09T01:05:51;100077.63;;;21.85;89.54
28628;BME280;15815;46.760;19.604;2022-09-09T01:11:11;100068.44;;;21.81;89.63
28628;BME280;15815;46.760;19.604;2022-09-09T01:13:41;100073.06;;;21.79;89.99
28628;BME280;15815;46.760;19.604;2022-09-09T01:16:08;100065.47;;;21.76;89.37
28628;BME280;15815;46.760;19.604;2022-09-09T01:18:40;100081.84;;;21.75;88.81
28628;BME280;15815;46.760;19.604;2022-09-09T01:21:33;100090.41;;;21.75;89.17
28628;BME280;15815;46.760;19.604;2022-09-09T01:26:52;100084.09;;;21.71;88.23
28628;BME280;15815;46.760;19.604;2022-09-09T01:29:21;100089.50;;;21.69;88.13
28628;BME280;15815;46.760;19.604;2022-09-09T01:32:01;100097.78;;;21.67;87.94
28628;BME280;15815;46.760;19.604;2022-09-09T01:34:31;100096.34;;;21.63;88.33
28628;BME280;15815;46.760;19.604;2022-09-09T01:37:10;100098.63;;;21.58;88.04
28628;BME280;15815;46.760;19.604;2022-09-09T01:39:37;100098.78;;;21.55;88.01
28628;BME280;15815;46.760;19.604;2022-09-09T01:42:06;100095.31;;;21.51;87.97
28628;BME280;15815;46.760;19.604;2022-09-09T01:44:34;100080.72;;;21.49;87.89
28628;BME280;15815;46.760;19.604;2022-09-09T01:47:01;100073.13;;;21.46;87.64
28628;BME280;15815;46.760;19.604;2022-09-09T01:49:27;100074.59;;;21.41;87.49
28628;BME280;15815;46.760;19.604;2022-09-09T01:51:54;100074.78;;;21.38;88.14
28628;BME280;15815;46.760;19.604;2022-09-09T01:54:23;100083.97;;;21.33;88.11
28628;BME280;15815;46.760;19.604;2022-09-09T01:57:27;100087.34;;;21.31;88.42
28628;BME280;15815;46.760;19.604;2022-09-09T02:00:09;100077.06;;;21.24;87.84
28628;BME280;15815;46.760;19.604;2022-09-09T02:05:30;100071.06;;;21.13;88.05
28628;BME280;15815;46.760;19.604;2022-09-09T02:08:05;100074.53;;;21.08;88.09
28628;BME280;15815;46.760;19.604;2022-09-09T02:10:44;100073.94;;;21.04;88.24
28628;BME280;15815;46.760;19.604;2022-09-09T02:13:18;100079.03;;;21.00;88.27
28628;BME280;15815;46.760;19.604;2022-09-09T02:15:55;100083.16;;;20.99;88.58
28628;BME280;15815;46.760;19.604;2022-09-09T02:18:48;100082.25;;;20.93;88.68
28628;BME280;15815;46.760;19.604;2022-09-09T02:21:15;100073.38;;;20.91;88.96
28628;BME280;15815;46.760;19.604;2022-09-09T02:23:42;100077.19;;;20.88;88.64
28628;BME280;15815;46.760;19.604;2022-09-09T02:26:12;100085.44;;;20.86;88.71
28628;BME280;15815;46.760;19.604;2022-09-09T02:28:40;100086.41;;;20.83;89.23
28628;BME280;15815;46.760;19.604;2022-09-09T02:31:07;100087.34;;;20.80;89.63
28628;BME280;15815;46.760;19.604;2022-09-09T02:33:37;100087.03;;;20.78;89.37
28628;BME280;15815;46.760;19.604;2022-09-09T02:36:04;100092.44;;;20.76;89.31
28628;BME280;15815;46.760;19.604;2022-09-09T02:38:35;100096.56;;;20.75;88.65
28628;BME280;15815;46.760;19.604;2022-09-09T02:41:02;100107.19;;;20.74;88.59
28628;BME280;15815;46.760;19.604;2022-09-09T02:43:33;100097.22;;;20.70;88.11
28628;BME280;15815;46.760;19.604;2022-09-09T02:49:11;100090.28;;;20.61;87.50
28628;BME280;15815;46.760;19.604;2022-09-09T02:54:33;100091.84;;;20.53;86.98
28628;BME280;15815;46.760;19.604;2022-09-09T02:57:12;100094.88;;;20.50;87.36
28628;BME280;15815;46.760;19.604;2022-09-09T02:59:39;100093.94;;;20.44;87.27
28628;BME280;15815;46.760;19.604;2022-09-09T03:02:05;100096.63;;;20.38;86.67
28628;BME280;15815;46.760;19.604;2022-09-09T03:04:30;100093.63;;;20.32;86.79
28628;BME280;15815;46.760;19.604;2022-09-09T03:06:57;100087.41;;;20.25;86.67
28628;BME280;15815;46.760;19.604;2022-09-09T03:09:23;100088.38;;;20.22;86.90
28628;BME280;15815;46.760;19.604;2022-09-09T03:11:49;100082.84;;;20.18;87.17
28628;BME280;15815;46.760;19.604;2022-09-09T03:14:15;100087.13;;;20.14;87.23
28628;BME280;15815;46.760;19.604;2022-09-09T03:16:40;100080.16;;;20.15;88.83
28628;BME280;15815;46.760;19.604;2022-09-09T03:19:07;100082.06;;;20.09;88.79
28628;BME280;15815;46.760;19.604;2022-09-09T03:21:32;100084.28;;;20.04;88.46
28628;BME280;15815;46.760;19.604;2022-09-09T03:23:58;100088.09;;;20.01;88.13
28628;BME280;15815;46.760;19.604;2022-09-09T03:26:23;100084.88;;;19.99;87.92
28628;BME280;15815;46.760;19.604;2022-09-09T03:28:48;100093.13;;;19.97;88.27
28628;BME280;15815;46.760;19.604;2022-09-09T03:31:16;100102.97;;;19.96;89.12
28628;BME280;15815;46.760;19.604;2022-09-09T03:33:42;100107.56;;;19.94;89.29
28628;BME280;15815;46.760;19.604;2022-09-09T03:36:07;100119.91;;;19.91;89.72
28628;BME280;15815;46.760;19.604;2022-09-09T03:38:33;100117.22;;;19.87;89.77
28628;BME280;15815;46.760;19.604;2022-09-09T03:40:59;100127.34;;;19.88;90.28
28628;BME280;15815;46.760;19.604;2022-09-09T03:43:25;100127.34;;;19.88;90.54
28628;BME280;15815;46.760;19.604;2022-09-09T03:45:52;100126.09;;;19.89;90.80
28628;BME280;15815;46.760;19.604;2022-09-09T03:48:18;100117.22;;;19.87;90.82
28628;BME280;15815;46.760;19.604;2022-09-09T03:50:48;100114.06;;;19.85;91.22
28628;BME280;15815;46.760;19.604;2022-09-09T03:53:15;100114.53;;;19.84;90.96
28628;BME280;15815;46.760;19.604;2022-09-09T03:55:52;100116.91;;;19.85;91.26
28628;BME280;15815;46.760;19.604;2022-09-09T03:58:20;100113.25;;;19.85;91.07
28628;BME280;15815;46.760;19.604;2022-09-09T04:00:57;100113.72;;;19.83;90.83
28628;BME280;15815;46.760;19.604;2022-09-09T04:03:23;100109.28;;;19.82;90.51
28628;BME280;15815;46.760;19.604;2022-09-09T04:05:52;100111.66;;;19.84;90.73
28628;BME280;15815;46.760;19.604;2022-09-09T04:08:19;100118.47;;;19.86;90.60
28628;BME280;15815;46.760;19.604;2022-09-09T04:10:46;100123.56;;;19.91;90.13
28628;BME280;15815;46.760;19.604;2022-09-09T04:13:13;100131.31;;;19.91;89.72
28628;BME280;15815;46.760;19.604;2022-09-09T04:15:40;100132.44;;;19.93;89.29
28628;BME280;15815;46.760;19.604;2022-09-09T04:18:05;100140.34;;;19.89;89.75
28628;BME280;15815;46.760;19.604;2022-09-09T04:20:31;100137.19;;;19.87;89.80
28628;BME280;15815;46.760;19.604;2022-09-09T04:22:57;100129.56;;;19.84;90.31
28628;BME280;15815;46.760;19.604;2022-09-09T04:25:23;100121.03;;;19.84;90.72
28628;BME280;15815;46.760;19.604;2022-09-09T04:27:56;100112.94;;;19.83;90.60
28628;BME280;15815;46.760;19.604;2022-09-09T04:30:22;100117.84;;;19.82;90.92
28628;BME280;15815;46.760;19.604;2022-09-09T04:32:48;100122.75;;;19.82;91.27
28628;BME280;15815;46.760;19.604;2022-09-09T04:35:13;100124.34;;;19.83;91.71
28628;BME280;15815;46.760;19.604;2022-09-09T04:37:38;100126.72;;;19.84;91.96
28628;BME280;15815;46.760;19.604;2022-09-09T04:40:05;100119.75;;;19.85;92.07
28628;BME280;15815;46.760;19.604;2022-09-09T04:42:37;100125.13;;;19.83;92.04
28628;BME280;15815;46.760;19.604;2022-09-09T04:45:04;100114.53;;;19.84;91.74
28628;BME280;15815;46.760;19.604;2022-09-09T04:47:29;100113.72;;;19.83;91.37
28628;BME280;15815;46.760;19.604;2022-09-09T04:49:54;100109.28;;;19.82;91.31
28628;BME280;15815;46.760;19.604;2022-09-09T04:52:20;100112.94;;;19.83;91.57
28628;BME280;15815;46.760;19.604;2022-09-09T04:54:46;100115.47;;;19.81;91.86
28628;BME280;15815;46.760;19.604;2022-09-09T04:57:11;100109.47;;;19.79;91.72
28628;BME280;15815;46.760;19.604;2022-09-09T04:59:37;100105.81;;;19.78;91.21
28628;BME280;15815;46.760;19.604;2022-09-09T05:02:02;100110.25;;;19.79;91.79
28628;BME280;15815;46.760;19.604;2022-09-09T05:04:29;100114.69;;;19.80;91.63
28628;BME280;15815;46.760;19.604;2022-09-09T05:06:54;100105.34;;;19.80;91.79
28628;BME280;15815;46.760;19.604;2022-09-09T05:09:20;100103.28;;;19.80;91.63
28628;BME280;15815;46.760;19.604;2022-09-09T05:11:45;100103.28;;;19.80;91.48
28628;BME280;15815;46.760;19.604;2022-09-09T05:14:11;100102.81;;;19.82;91.29
28628;BME280;15815;46.760;19.604;2022-09-09T05:16:37;100098.38;;;19.81;91.30
28628;BME280;15815;46.760;19.604;2022-09-09T05:19:02;100104.06;;;19.81;90.79
28628;BME280;15815;46.760;19.604;2022-09-09T05:21:28;100104.84;;;19.81;90.32
28628;BME280;15815;46.760;19.604;2022-09-09T05:23:54;100102.00;;;19.81;90.05
28628;BME280;15815;46.760;19.604;2022-09-09T05:26:21;100110.41;;;19.85;89.97
28628;BME280;15815;46.760;19.604;2022-09-09T05:28:47;100116.13;;;19.85;89.84
28628;BME280;15815;46.760;19.604;2022-09-09T05:31:13;100109.28;;;19.82;89.83
28628;BME280;15815;46.760;19.604;2022-09-09T05:33:41;100121.97;;;19.81;90.00
28628;BME280;15815;46.760;19.604;2022-09-09T05:36:10;100109.78;;;19.81;89.73
28628;BME280;15815;46.760;19.604;2022-09-09T05:38:37;100119.13;;;19.81;89.95
28628;BME280;15815;46.760;19.604;2022-09-09T05:41:03;100111.84;;;19.80;90.30
28628;BME280;15815;46.760;19.604;2022-09-09T05:43:29;100121.66;;;19.79;90.36
28628;BME280;15815;46.760;19.604;2022-09-09T05:46:03;100117.84;;;19.82;90.32
28628;BME280;15815;46.760;19.604;2022-09-09T05:48:33;100121.03;;;19.84;90.13
28628;BME280;15815;46.760;19.604;2022-09-09T05:51:00;100123.41;;;19.86;89.99
28628;BME280;15815;46.760;19.604;2022-09-09T05:53:26;100130.53;;;19.90;89.92
28628;BME280;15815;46.760;19.604;2022-09-09T05:56:07;100138.78;;;19.97;89.51
28628;BME280;15815;46.760;19.604;2022-09-09T05:58:33;100142.59;;;20.03;88.62
28628;BME280;15815;46.760;19.604;2022-09-09T06:03:29;100129.75;;;20.17;89.04
28628;BME280;15815;46.760;19.604;2022-09-09T06:06:01;100139.75;;;20.22;87.73
28628;BME280;15815;46.760;19.604;2022-09-09T06:08:27;100132.16;;;20.28;86.23
28628;BME280;15815;46.760;19.604;2022-09-09T06:10:52;100131.34;;;20.36;86.48
28628;BME280;15815;46.760;19.604;2022-09-09T06:13:18;100135.16;;;20.61;86.04
28628;BME280;15815;46.760;19.604;2022-09-09T06:15:51;100133.22;;;20.76;83.08
28628;BME280;15815;46.760;19.604;2022-09-09T06:18:17;100126.72;;;20.85;82.72
28628;BME280;15815;46.760;19.604;2022-09-09T06:20:53;100144.59;;;20.94;82.39
28628;BME280;15815;46.760;19.604;2022-09-09T06:23:19;100153.00;;;20.98;81.37
28628;BME280;15815;46.760;19.604;2022-09-09T06:25:45;100145.47;;;21.19;82.24
28628;BME280;15815;46.760;19.604;2022-09-09T06:28:11;100153.78;;;22.07;78.37
28628;BME280;15815;46.760;19.604;2022-09-09T06:30:36;100161.94;;;23.65;70.55
28628;BME280;15815;46.760;19.604;2022-09-09T06:33:02;100165.91;;;25.52;63.48
28628;BME280;15815;46.760;19.604;2022-09-09T06:35:27;100171.19;;;26.51;59.40
28628;BME280;15815;46.760;19.604;2022-09-09T06:37:53;100172.22;;;26.47;57.52
28628;BME280;15815;46.760;19.604;2022-09-09T06:40:19;100167.78;;;25.98;59.00
28628;BME280;15815;46.760;19.604;2022-09-09T06:42:44;100175.88;;;26.42;58.90
28628;BME280;15815;46.760;19.604;2022-09-09T06:45:10;100179.97;;;27.57;55.67
28628;BME280;15815;46.760;19.604;2022-09-09T06:47:36;100175.25;;;28.62;52.14
28628;BME280;15815;46.760;19.604;2022-09-09T06:50:01;100181.69;;;29.86;49.55
28628;BME280;15815;46.760;19.604;2022-09-09T06:52:26;100175.25;;;31.36;46.01
28628;BME280;15815;46.760;19.604;2022-09-09T06:54:52;100192.81;;;31.89;43.28
28628;BME280;15815;46.760;19.604;2022-09-09T06:57:18;100203.13;;;32.30;41.67
28628;BME280;15815;46.760;19.604;2022-09-09T06:59:43;100200.00;;;32.54;41.98
28628;BME280;15815;46.760;19.604;2022-09-09T07:02:09;100197.25;;;33.51;40.30
28628;BME280;15815;46.760;19.604;2022-09-09T07:04:35;100187.00;;;34.63;37.39
28628;BME280;15815;46.760;19.604;2022-09-09T07:07:00;100192.91;;;35.60;35.83
28628;BME280;15815;46.760;19.604;2022-09-09T07:09:26;100193.25;;;36.48;34.67
28628;BME280;15815;46.760;19.604;2022-09-09T07:11:52;100200.16;;;38.41;33.41
28628;BME280;15815;46.760;19.604;2022-09-09T07:14:18;100199.22;;;39.90;29.88
28628;BME280;15815;46.760;19.604;2022-09-09T07:16:44;100202.41;;;40.02;29.59
28628;BME280;15815;46.760;19.604;2022-09-09T07:19:11;100207.91;;;40.83;27.87
28628;BME280;15815;46.760;19.604;2022-09-09T07:21:37;100199.66;;;40.52;28.04
28628;BME280;15815;46.760;19.604;2022-09-09T07:24:03;100199.47;;;41.99;27.65
28628;BME280;15815;46.760;19.604;2022-09-09T07:26:33;100208.03;;;42.47;26.64
28628;BME280;15815;46.760;19.604;2022-09-09T07:28:58;100196.03;;;41.21;26.03
28628;BME280;15815;46.760;19.604;2022-09-09T07:31:29;100193.53;;;41.37;27.33
28628;BME280;15815;46.760;19.604;2022-09-09T07:33:58;100191.53;;;42.02;26.32
28628;BME280;15815;46.760;19.604;2022-09-09T07:36:27;100181.22;;;42.34;25.49
28628;BME280;15815;46.760;19.604;2022-09-09T07:38:55;100176.03;;;42.77;25.61
28628;BME280;15815;46.760;19.604;2022-09-09T07:41:24;100181.31;;;43.11;24.87
28628;BME280;15815;46.760;19.604;2022-09-09T07:43:51;100176.09;;;42.88;24.40
28628;BME280;15815;46.760;19.604;2022-09-09T07:46:20;100167.06;;;42.75;24.74
28628;BME280;15815;46.760;19.604;2022-09-09T07:48:51;100170.06;;;43.66;23.70
28628;BME280;15815;46.760;19.604;2022-09-09T07:51:22;100172.78;;;42.94;23.94
28628;BME280;15815;46.760;19.604;2022-09-09T07:53:48;100176.38;;;43.72;24.04
28628;BME280;15815;46.760;19.604;2022-09-09T07:56:17;100180.34;;;43.54;24.18
28628;BME280;15815;46.760;19.604;2022-09-09T07:58:45;100179.97;;;42.70;24.93
28628;BME280;15815;46.760;19.604;2022-09-09T08:01:14;100180.88;;;41.56;26.71
28628;BME280;15815;46.760;19.604;2022-09-09T08:03:39;100176.75;;;40.60;27.39
28628;BME280;15815;46.760;19.604;2022-09-09T08:06:07;100181.75;;;39.19;28.90
28628;BME280;15815;46.760;19.604;2022-09-09T08:08:34;100184.09;;;37.57;30.99
28628;BME280;15815;46.760;19.604;2022-09-09T08:11:15;100180.22;;;36.19;32.78
28628;BME280;15815;46.760;19.604;2022-09-09T08:13:42;100188.19;;;35.27;34.00
28628;BME280;15815;46.760;19.604;2022-09-09T08:16:11;100178.66;;;34.75;35.16
28628;BME280;15815;46.760;19.604;2022-09-09T08:18:37;100177.03;;;33.94;37.27
28628;BME280;15815;46.760;19.604;2022-09-09T08:21:14;100182.91;;;32.98;38.75
28628;BME280;15815;46.760;19.604;2022-09-09T08:23:41;100188.38;;;32.27;39.95
28628;BME280;15815;46.760;19.604;2022-09-09T08:26:12;100176.06;;;31.82;40.96
28628;BME280;15815;46.760;19.604;2022-09-09T08:28:39;100181.97;;;31.44;41.94
28628;BME280;15815;46.760;19.604;2022-09-09T08:31:11;100185.75;;;31.39;43.45
28628;BME280;15815;46.760;19.604;2022-09-09T08:33:38;100182.16;;;31.33;43.68
28628;BME280;15815;46.760;19.604;2022-09-09T08:36:05;100179.50;;;31.35;44.26
28628;BME280;15815;46.760;19.604;2022-09-09T08:38:31;100175.13;;;31.10;42.06
28628;BME280;15815;46.760;19.604;2022-09-09T08:44:07;100182.44;;;30.97;43.59
28628;BME280;15815;46.760;19.604;2022-09-09T08:52:02;100166.97;;;30.89;41.80
28628;BME280;15815;46.760;19.604;2022-09-09T08:54:33;100172.13;;;30.59;42.18
28628;BME280;15815;46.760;19.604;2022-09-09T08:57:00;100170.88;;;30.35;41.73
28628;BME280;15815;46.760;19.604;2022-09-09T08:59:25;100166.41;;;30.34;43.50
28628;BME280;15815;46.760;19.604;2022-09-09T09:02:03;100168.50;;;30.15;42.22
28628;BME280;15815;46.760;19.604;2022-09-09T09:04:48;100178.81;;;30.10;42.68
28628;BME280;15815;46.760;19.604;2022-09-09T09:12:41;100178.00;;;29.61;43.02
28628;BME280;15815;46.760;19.604;2022-09-09T09:15:28;100175.25;;;29.44;42.41
28628;BME280;15815;46.760;19.604;2022-09-09T09:17:55;100170.56;;;29.36;43.99
28628;BME280;15815;46.760;19.604;2022-09-09T09:20:29;100160.06;;;29.33;43.65
28628;BME280;15815;46.760;19.604;2022-09-09T09:23:00;100168.00;;;29.27;45.60
28628;BME280;15815;46.760;19.604;2022-09-09T09:25:31;100165.03;;;29.38;45.62
28628;BME280;15815;46.760;19.604;2022-09-09T09:33:43;100153.44;;;29.92;43.78
28628;BME280;15815;46.760;19.604;2022-09-09T09:36:12;100150.97;;;29.77;44.32
28628;BME280;15815;46.760;19.604;2022-09-09T09:38:52;100157.72;;;29.85;42.34
28628;BME280;15815;46.760;19.604;2022-09-09T09:41:28;100160.75;;;29.99;43.25
28628;BME280;15815;46.760;19.604;2022-09-09T09:43:55;100151.47;;;30.06;43.17
28628;BME280;15815;46.760;19.604;2022-09-09T09:46:22;100156.13;;;30.14;42.13
28628;BME280;15815;46.760;19.604;2022-09-09T09:49:02;100152.69;;;30.16;41.91
28628;BME280;15815;46.760;19.604;2022-09-09T09:51:29;100154.56;;;30.13;42.67
28628;BME280;15815;46.760;19.604;2022-09-09T09:54:14;100156.41;;;30.11;43.01
28628;BME280;15815;46.760;19.604;2022-09-09T09:56:44;100156.13;;;30.14;43.40
28628;BME280;15815;46.760;19.604;2022-09-09T09:59:36;100151.81;;;30.21;43.03
28628;BME280;15815;46.760;19.604;2022-09-09T10:04:46;100152.00;;;30.48;45.33
28628;BME280;15815;46.760;19.604;2022-09-09T10:07:17;100150.41;;;30.28;42.13
28628;BME280;15815;46.760;19.604;2022-09-09T10:09:42;100147.78;;;30.05;43.97
28628;BME280;15815;46.760;19.604;2022-09-09T10:12:30;100158.72;;;30.18;45.34
28628;BME280;15815;46.760;19.604;2022-09-09T10:28:48;100130.13;;;29.79;41.39
28628;BME280;15815;46.760;19.604;2022-09-09T10:31:19;100139.28;;;29.64;43.41
28628;BME280;15815;46.760;19.604;2022-09-09T10:36:47;100145.53;;;29.08;43.13
28628;BME280;15815;46.760;19.604;2022-09-09T10:39:35;100132.47;;;28.96;45.22
28628;BME280;15815;46.760;19.604;2022-09-09T10:42:06;100134.38;;;28.88;44.32
28628;BME280;15815;46.760;19.604;2022-09-09T10:47:44;100132.31;;;28.77;42.15
28628;BME280;15815;46.760;19.604;2022-09-09T10:50:28;100144.41;;;28.76;44.85
28628;BME280;15815;46.760;19.604;2022-09-09T10:53:26;100134.19;;;28.69;44.16
28628;BME280;15815;46.760;19.604;2022-09-09T10:56:10;100130.84;;;28.59;42.15
28628;BME280;15815;46.760;19.604;2022-09-09T10:58:42;100132.16;;;28.58;42.95
28628;BME280;15815;46.760;19.604;2022-09-09T11:01:15;100135.31;;;28.60;44.32
28628;BME280;15815;46.760;19.604;2022-09-09T11:03:43;100136.34;;;28.63;44.52
28628;BME280;15815;46.760;19.604;2022-09-09T11:06:17;100127.91;;;28.65;43.56
28628;BME280;15815;46.760;19.604;2022-09-09T11:08:45;100127.13;;;28.65;43.52
28628;BME280;15815;46.760;19.604;2022-09-09T11:11:27;100128.75;;;28.60;42.59
28628;BME280;15815;46.760;19.604;2022-09-09T11:14:03;100123.00;;;28.49;44.29
28628;BME280;15815;46.760;19.604;2022-09-09T11:19:24;100115.66;;;28.48;42.40
28628;BME280;15815;46.760;19.604;2022-09-09T11:21:52;100118.78;;;28.55;43.81
28628;BME280;15815;46.760;19.604;2022-09-09T11:27:09;100107.38;;;28.69;42.34
28628;BME280;15815;46.760;19.604;2022-09-09T11:29:57;100107.63;;;28.76;40.86
28628;BME280;15815;46.760;19.604;2022-09-09T11:32:33;100102.34;;;28.75;43.15
28628;BME280;15815;46.760;19.604;2022-09-09T11:40:23;100108.66;;;28.79;40.33
28628;BME280;15815;46.760;19.604;2022-09-09T11:42:49;100114.69;;;28.81;38.52
28628;BME280;15815;46.760;19.604;2022-09-09T11:45:27;100116.50;;;28.84;39.41
28628;BME280;15815;46.760;19.604;2022-09-09T11:48:01;100105.97;;;28.86;38.73
28628;BME280;15815;46.760;19.604;2022-09-09T11:50:31;100115.16;;;28.90;37.97
28628;BME280;15815;46.760;19.604;2022-09-09T11:53:17;100119.31;;;28.95;37.74
28628;BME280;15815;46.760;19.604;2022-09-09T11:55:46;100113.53;;;28.95;36.64
28628;BME280;15815;46.760;19.604;2022-09-09T12:00:39;100118.81;;;28.91;36.83
28628;BME280;15815;46.760;19.604;2022-09-09T12:05:58;100109.91;;;28.89;39.28
28628;BME280;15815;46.760;19.604;2022-09-09T12:08:28;100115.34;;;28.98;37.41
28628;BME280;15815;46.760;19.604;2022-09-09T12:10:56;100117.44;;;28.98;36.83
28628;BME280;15815;46.760;19.604;2022-09-09T12:13:24;100119.56;;;28.97;37.73
28628;BME280;15815;46.760;19.604;2022-09-09T12:15:51;100111.72;;;28.92;37.10
28628;BME280;15815;46.760;19.604;2022-09-09T12:18:23;100102.06;;;28.78;37.80
28628;BME280;15815;46.760;19.604;2022-09-09T12:21:21;100112.34;;;28.74;38.01
28628;BME280;15815;46.760;19.604;2022-09-09T12:24:01;100099.72;;;28.77;37.20
28628;BME280;15815;46.760;19.604;2022-09-09T12:26:38;100101.53;;;28.80;38.12
28628;BME280;15815;46.760;19.604;2022-09-09T12:29:24;100093.09;;;28.87;36.94
28628;BME280;15815;46.760;19.604;2022-09-09T12:32:15;100084.31;;;28.99;35.83
28628;BME280;15815;46.760;19.604;2022-09-09T12:34:54;100081.09;;;29.08;35.67
28628;BME280;15815;46.760;19.604;2022-09-09T12:39:57;100080.72;;;29.17;35.42
28628;BME280;15815;46.760;19.604;2022-09-09T12:42:24;100070.25;;;29.14;36.29
28628;BME280;15815;46.760;19.604;2022-09-09T12:44:57;100065.47;;;29.16;37.64
28628;BME280;15815;46.760;19.604;2022-09-09T12:47:34;100051.00;;;29.16;35.78
28628;BME280;15815;46.760;19.604;2022-09-09T12:50:02;100053.97;;;29.11;35.93
28628;BME280;15815;46.760;19.604;2022-09-09T12:52:32;100045.63;;;29.02;36.32
28628;BME280;15815;46.760;19.604;2022-09-09T12:55:02;100045.91;;;28.98;35.48
28628;BME280;15815;46.760;19.604;2022-09-09T12:57:37;100046.94;;;29.01;35.35
28628;BME280;15815;46.760;19.604;2022-09-09T13:00:16;100039.03;;;29.01;34.26
28628;BME280;15815;46.760;19.604;2022-09-09T13:02:54;100041.94;;;29.01;35.33
28628;BME280;15815;46.760;19.604;2022-09-09T13:05:26;100035.09;;;29.04;35.26
28628;BME280;15815;46.760;19.604;2022-09-09T13:07:52;100037.16;;;29.09;35.53
28628;BME280;15815;46.760;19.604;2022-09-09T13:10:29;100025.03;;;29.11;34.24
28628;BME280;15815;46.760;19.604;2022-09-09T13:12:57;100026.06;;;29.13;34.25
28628;BME280;15815;46.760;19.604;2022-09-09T13:15:26;100022.84;;;29.17;33.81
28628;BME280;15815;46.760;19.604;2022-09-09T13:17:55;100025.22;;;29.18;35.55
28628;BME280;15815;46.760;19.604;2022-09-09T13:20:22;100024.72;;;29.14;32.77
28628;BME280;15815;46.760;19.604;2022-09-09T13:22:49;100022.19;;;29.05;32.30
28628;BME280;15815;46.760;19.604;2022-09-09T13:25:22;100021.69;;;29.01;35.34
28628;BME280;15815;46.760;19.604;2022-09-09T13:27:57;100025.66;;;28.98;33.35
28628;BME280;15815;46.760;19.604;2022-09-09T13:30:31;100024.38;;;28.93;33.76
28628;BME280;15815;46.760;19.604;2022-09-09T13:33:05;100017.34;;;28.89;32.31
28628;BME280;15815;46.760;19.604;2022-09-09T13:35:31;100020.00;;;28.87;34.62
28628;BME280;15815;46.760;19.604;2022-09-09T13:37:58;100006.88;;;28.80;34.23
28628;BME280;15815;46.760;19.604;2022-09-09T13:40:24;100011.34;;;28.81;34.29
28628;BME280;15815;46.760;19.604;2022-09-09T13:42:56;100009.22;;;28.82;33.85
28628;BME280;15815;46.760;19.604;2022-09-09T13:45:23;100010.25;;;28.84;34.72
28628;BME280;15815;46.760;19.604;2022-09-09T13:47:52;100010.00;;;28.88;35.44
28628;BME280;15815;46.760;19.604;2022-09-09T13:50:25;100008.59;;;28.95;34.81
28628;BME280;15815;46.760;19.604;2022-09-09T13:52:55;99998.06;;;28.97;34.96
28628;BME280;15815;46.760;19.604;2022-09-09T13:55:24;100003.34;;;28.93;34.39
28628;BME280;15815;46.760;19.604;2022-09-09T13:57:54;99997.09;;;28.89;34.20
28628;BME280;15815;46.760;19.604;2022-09-09T14:00:21;99994.97;;;28.89;34.66
28628;BME280;15815;46.760;19.604;2022-09-09T14:02:48;99993.72;;;28.85;35.04
28628;BME280;15815;46.760;19.604;2022-09-09T14:05:14;99992.13;;;28.84;35.35
28628;BME280;15815;46.760;19.604;2022-09-09T14:07:41;99979.53;;;28.81;34.73
28628;BME280;15815;46.760;19.604;2022-09-09T14:10:07;99979.53;;;28.81;35.07
28628;BME280;15815;46.760;19.604;2022-09-09T14:12:33;99964.53;;;28.83;35.39
28628;BME280;15815;46.760;19.604;2022-09-09T14:14:58;99976.59;;;28.87;34.06
28628;BME280;15815;46.760;19.604;2022-09-09T14:17:25;99963.94;;;28.90;33.19
28628;BME280;15815;46.760;19.604;2022-09-09T14:19:54;99971.59;;;28.87;33.09
28628;BME280;15815;46.760;19.604;2022-09-09T14:22:20;99967.69;;;28.85;33.82
28628;BME280;15815;46.760;19.604;2022-09-09T14:24:45;99970.81;;;28.87;34.12
28628;BME280;15815;46.760;19.604;2022-09-09T14:27:11;99972.38;;;28.88;34.97
28628;BME280;15815;46.760;19.604;2022-09-09T14:29:36;99971.06;;;28.89;34.23
28628;BME280;15815;46.760;19.604;2022-09-09T14:32:02;99966.59;;;28.88;34.21
28628;BME280;15815;46.760;19.604;2022-09-09T14:34:27;99967.38;;;28.88;33.87